createdAt,value
2023-10-19T00:12:25.109Z,97.56
2023-10-19T00:27:25.858Z,97.36
2023-10-19T00:42:26.712Z,97.98
2023-10-19T00:57:26.937Z,98.23
2023-10-19T01:12:27.715Z,99.06
2023-10-19T01:27:28.476Z,98.91
2023-10-19T01:42:29.209Z,99.88
2023-10-19T01:57:30.064Z,98.54
2023-10-19T02:12:30.338Z,99.78
2023-10-19T02:27:33.377Z,99.99
2023-10-19T02:42:32.243Z,99.43
2023-10-19T02:57:32.941Z,99.32
2023-10-19T03:12:33.604Z,99.99
2023-10-19T03:27:34.472Z,99.99
2023-10-19T03:42:35.077Z,99.99
2023-10-19T03:57:35.682Z,99.99
2023-10-19T04:12:36.339Z,99.99
2023-10-19T04:27:36.953Z,99.99
2023-10-19T04:42:37.548Z,99.99
2023-10-19T04:57:38.268Z,99.99
2023-10-19T05:12:38.854Z,99.99
2023-10-19T05:27:39.376Z,99.99
2023-10-19T05:42:39.840Z,99.99
2023-10-19T05:57:40.288Z,99.99
2023-10-19T06:12:40.616Z,99.63
2023-10-19T06:27:41.216Z,99.99
2023-10-19T06:42:41.606Z,99.99
2023-10-19T06:57:42.158Z,99.99
2023-10-19T07:12:42.722Z,99.05
2023-10-19T07:27:43.230Z,98.44
2023-10-19T07:42:43.733Z,98.25
2023-10-19T07:57:44.068Z,96.20
2023-10-19T08:12:45.364Z,95.70
2023-10-19T08:27:45.221Z,94.65
2023-10-19T08:42:45.631Z,93.24
2023-10-19T08:57:46.031Z,91.78
2023-10-19T09:12:46.530Z,91.69
2023-10-19T09:27:46.899Z,93.02
2023-10-19T09:42:47.204Z,95.52
2023-10-19T09:57:47.599Z,94.01
2023-10-19T10:12:48.134Z,92.70
2023-10-19T10:27:48.685Z,90.88
2023-10-19T10:42:49.188Z,91.39
2023-10-19T10:57:50.714Z,91.14
2023-10-19T11:12:50.233Z,91.41
2023-10-19T11:27:51.050Z,93.07
2023-10-19T11:42:51.402Z,95.05
2023-10-19T11:57:51.753Z,96.28
2023-10-19T12:13:01.573Z,94.17
2023-10-19T12:27:53.601Z,90.38
2023-10-19T12:42:52.956Z,89.77
2023-10-19T12:57:54.014Z,88.17
2023-10-19T13:12:54.459Z,88.88
2023-10-19T13:27:55.265Z,87.05
2023-10-19T13:42:56.307Z,87.40
2023-10-19T13:57:56.930Z,88.66
2023-10-19T14:12:57.669Z,90.83
2023-10-19T14:27:58.568Z,92.94
2023-10-19T14:42:59.343Z,92.54
2023-10-19T14:58:00.112Z,92.60
2023-10-19T15:13:01.043Z,92.64
2023-10-19T15:28:01.377Z,92.68
2023-10-19T15:43:02.212Z,94.35
2023-10-19T15:58:02.420Z,93.59
2023-10-19T16:13:02.826Z,94.64
2023-10-19T16:28:03.120Z,94.59
2023-10-19T16:43:03.568Z,95.14
2023-10-19T16:58:04.623Z,94.68
2023-10-19T17:13:05.272Z,95.33
2023-10-19T17:28:05.676Z,96.75
2023-10-19T17:43:06.212Z,97.96
2023-10-19T17:58:06.894Z,97.80
2023-10-19T18:13:07.524Z,92.72
2023-10-19T18:28:08.195Z,99.99
2023-10-19T18:43:08.785Z,99.99
2023-10-19T18:58:09.425Z,99.99
2023-10-19T19:13:09.891Z,99.57
2023-10-19T19:28:10.576Z,99.99
2023-10-19T19:43:11.370Z,97.62
2023-10-19T19:58:12.155Z,99.99
2023-10-19T20:13:12.823Z,99.99
2023-10-19T20:28:13.479Z,99.99
2023-10-19T20:43:14.127Z,99.99
2023-10-19T20:58:15.320Z,99.99
2023-10-19T21:13:15.578Z,99.99
2023-10-19T21:28:16.293Z,99.99
2023-10-19T21:43:17.026Z,99.99
2023-10-19T21:58:17.769Z,99.99
2023-10-19T22:13:18.500Z,99.99
2023-10-19T22:28:19.240Z,99.99
2023-10-19T22:43:20.080Z,99.99
2023-10-19T22:58:20.310Z,99.98
2023-10-19T23:13:21.059Z,99.99
2023-10-19T23:28:21.801Z,99.99
2023-10-19T23:43:22.536Z,99.99
2023-10-19T23:58:23.367Z,99.99
